sensor_id;sensor_type;location;lat;lon;timestamp;pressure;altitude;pressure_sealevel;temperature;humidity
73564;BME280;61834;50.196;6.454;2023-03-09T00:00:21;93796.44;;;6.43;100.00
73564;BME280;61834;50.196;6.454;2023-03-09T00:02:47;93795.88;;;6.32;100.00
73564;BME280;61834;50.196;6.454;2023-03-09T00:05:13;93796.09;;;6.22;100.00
73564;BME280;61834;50.196;6.454;2023-03-09T00:07:43;93789.88;;;6.21;100.00
73564;BME280;61834;50.196;6.454;2023-03-09T00:10:11;93786.19;;;6.12;100.00
73564;BME280;61834;50.196;6.454;2023-03-09T00:12:36;93784.56;;;6.14;100.00
73564;BME280;61834;50.196;6.454;2023-03-09T00:15:02;93788.97;;;6.08;100.00
73564;BME280;61834;50.196;6.454;2023-03-09T00:17:27;93790.66;;;6.02;100.00
73564;BME280;61834;50.196;6.454;2023-03-09T00:19:53;93810.88;;;5.98;100.00
73564;BME280;61834;50.196;6.454;2023-03-09T00:22:27;93819.97;;;5.88;100.00
73564;BME280;61834;50.196;6.454;2023-03-09T00:24:55;93818.06;;;6.08;100.00
73564;BME280;61834;50.196;6.454;2023-03-09T00:27:22;93815.63;;;6.13;100.00
73564;BME280;61834;50.196;6.454;2023-03-09T00:29:47;93825.66;;;6.16;100.00
73564;BME280;61834;50.196;6.454;2023-03-09T00:32:13;93835.97;;;6.25;100.00
73564;BME280;61834;50.196;6.454;2023-03-09T00:34:38;93846.44;;;6.26;100.00
73564;BME280;61834;50.196;6.454;2023-03-09T00:37:04;93857.72;;;6.25;100.00
73564;BME280;61834;50.196;6.454;2023-03-09T00:39:29;93896.66;;;6.38;100.00
73564;BME280;61834;50.196;6.454;2023-03-09T00:41:55;93876.97;;;6.54;100.00
73564;BME280;61834;50.196;6.454;2023-03-09T00:44:20;93885.31;;;6.63;100.00
73564;BME280;61834;50.196;6.454;2023-03-09T00:46:46;93893.97;;;6.58;100.00
73564;BME280;61834;50.196;6.454;2023-03-09T00:49:14;93884.56;;;6.43;100.00
73564;BME280;61834;50.196;6.454;2023-03-09T00:51:40;93873.13;;;6.51;100.00
73564;BME280;61834;50.196;6.454;2023-03-09T00:54:07;93870.34;;;6.35;100.00
73564;BME280;61834;50.196;6.454;2023-03-09T00:56:34;93855.97;;;6.34;100.00
73564;BME280;61834;50.196;6.454;2023-03-09T00:59:00;93866.84;;;6.34;100.00
73564;BME280;61834;50.196;6.454;2023-03-09T01:01:26;93888.44;;;6.41;100.00
73564;BME280;61834;50.196;6.454;2023-03-09T01:03:52;93871.94;;;6.32;100.00
73564;BME280;61834;50.196;6.454;2023-03-09T01:06:17;93830.44;;;6.32;100.00
73564;BME280;61834;50.196;6.454;2023-03-09T01:08:44;93876.72;;;6.25;100.00
73564;BME280;61834;50.196;6.454;2023-03-09T01:11:13;93876.59;;;6.12;100.00
73564;BME280;61834;50.196;6.454;2023-03-09T01:13:39;93890.84;;;6.16;100.00
73564;BME280;61834;50.196;6.454;2023-03-09T01:16:05;93872.63;;;6.17;100.00
73564;BME280;61834;50.196;6.454;2023-03-09T01:18:31;93885.84;;;6.15;100.00
73564;BME280;61834;50.196;6.454;2023-03-09T01:20:57;93881.97;;;6.35;100.00
73564;BME280;61834;50.196;6.454;2023-03-09T01:23:23;93892.66;;;6.23;100.00
73564;BME280;61834;50.196;6.454;2023-03-09T01:25:49;93887.19;;;6.26;100.00
73564;BME280;61834;50.196;6.454;2023-03-09T01:28:14;93891.22;;;6.18;100.00
73564;BME280;61834;50.196;6.454;2023-03-09T01:30:40;93898.16;;;6.19;100.00
73564;BME280;61834;50.196;6.454;2023-03-09T01:33:05;93905.97;;;6.17;100.00
73564;BME280;61834;50.196;6.454;2023-03-09T01:35:31;93901.72;;;6.16;100.00
73564;BME280;61834;50.196;6.454;2023-03-09T01:38:00;93918.78;;;6.17;100.00
73564;BME280;61834;50.196;6.454;2023-03-09T01:40:27;93916.91;;;6.14;100.00
73564;BME280;61834;50.196;6.454;2023-03-09T01:49:05;93939.56;;;6.27;100.00
73564;BME280;61834;50.196;6.454;2023-03-09T01:51:52;93938.63;;;6.37;100.00
73564;BME280;61834;50.196;6.454;2023-03-09T01:57:26;93950.72;;;6.32;100.00
73564;BME280;61834;50.196;6.454;2023-03-09T01:59:55;93955.84;;;6.27;100.00
73564;BME280;61834;50.196;6.454;2023-03-09T02:02:24;93947.59;;;6.34;100.00
73564;BME280;61834;50.196;6.454;2023-03-09T02:04:56;93960.72;;;6.39;100.00
73564;BME280;61834;50.196;6.454;2023-03-09T02:07:24;93970.03;;;6.38;100.00
73564;BME280;61834;50.196;6.454;2023-03-09T02:10:07;93962.00;;;6.54;100.00
73564;BME280;61834;50.196;6.454;2023-03-09T02:12:35;93974.56;;;6.44;100.00
73564;BME280;61834;50.196;6.454;2023-03-09T02:15:02;93986.50;;;6.51;100.00
73564;BME280;61834;50.196;6.454;2023-03-09T02:17:28;93982.19;;;6.53;100.00
73564;BME280;61834;50.196;6.454;2023-03-09T02:20:15;93984.72;;;6.64;100.00
73564;BME280;61834;50.196;6.454;2023-03-09T02:22:44;93987.56;;;6.57;100.00
73564;BME280;61834;50.196;6.454;2023-03-09T02:27:35;94005.53;;;6.51;100.00
73564;BME280;61834;50.196;6.454;2023-03-09T02:30:02;94005.81;;;6.56;100.00
73564;BME280;61834;50.196;6.454;2023-03-09T02:32:32;94012.38;;;6.59;100.00
73564;BME280;61834;50.196;6.454;2023-03-09T02:34:57;94012.38;;;6.59;100.00
73564;BME280;61834;50.196;6.454;2023-03-09T02:37:31;94022.09;;;6.56;100.00
73564;BME280;61834;50.196;6.454;2023-03-09T02:40:18;94011.13;;;6.63;100.00
73564;BME280;61834;50.196;6.454;2023-03-09T02:42:47;94022.59;;;6.74;100.00
73564;BME280;61834;50.196;6.454;2023-03-09T02:45:16;94046.09;;;6.61;100.00
73564;BME280;61834;50.196;6.454;2023-03-09T02:47:42;94037.00;;;6.94;100.00
73564;BME280;61834;50.196;6.454;2023-03-09T02:50:09;94039.41;;;6.89;100.00
73564;BME280;61834;50.196;6.454;2023-03-09T02:52:36;94040.66;;;6.84;100.00
73564;BME280;61834;50.196;6.454;2023-03-09T02:55:02;94044.50;;;6.87;100.00
73564;BME280;61834;50.196;6.454;2023-03-09T02:57:28;94050.94;;;6.73;100.00
73564;BME280;61834;50.196;6.454;2023-03-09T02:59:54;94064.25;;;6.91;100.00
73564;BME280;61834;50.196;6.454;2023-03-09T03:02:20;94057.84;;;6.78;100.00
73564;BME280;61834;50.196;6.454;2023-03-09T03:04:45;94058.28;;;6.76;100.00
73564;BME280;61834;50.196;6.454;2023-03-09T03:07:12;94060.81;;;6.87;100.00
73564;BME280;61834;50.196;6.454;2023-03-09T03:09:37;94069.03;;;6.83;100.00
73564;BME280;61834;50.196;6.454;2023-03-09T03:12:02;94081.78;;;6.63;100.00
73564;BME280;61834;50.196;6.454;2023-03-09T03:14:29;94087.91;;;6.71;100.00
73564;BME280;61834;50.196;6.454;2023-03-09T03:16:55;94092.59;;;6.67;100.00
73564;BME280;61834;50.196;6.454;2023-03-09T03:19:21;94106.41;;;6.53;100.00
73564;BME280;61834;50.196;6.454;2023-03-09T03:21:47;94099.88;;;6.73;100.00
73564;BME280;61834;50.196;6.454;2023-03-09T03:24:15;94110.88;;;6.66;100.00
73564;BME280;61834;50.196;6.454;2023-03-09T03:26:41;94123.03;;;6.81;100.00
73564;BME280;61834;50.196;6.454;2023-03-09T03:29:10;94127.16;;;6.66;100.00
73564;BME280;61834;50.196;6.454;2023-03-09T03:31:36;94130.34;;;6.61;100.00
73564;BME280;61834;50.196;6.454;2023-03-09T03:34:02;94130.16;;;6.75;100.00
73564;BME280;61834;50.196;6.454;2023-03-09T03:36:32;94129.78;;;6.73;100.00
73564;BME280;61834;50.196;6.454;2023-03-09T03:38:58;94127.13;;;6.70;100.00
73564;BME280;61834;50.196;6.454;2023-03-09T03:41:23;94130.31;;;6.65;100.00
73564;BME280;61834;50.196;6.454;2023-03-09T03:43:52;94135.69;;;6.68;100.00
73564;BME280;61834;50.196;6.454;2023-03-09T03:46:17;94132.41;;;6.80;100.00
73564;BME280;61834;50.196;6.454;2023-03-09T03:48:44;94130.19;;;6.72;100.00
73564;BME280;61834;50.196;6.454;2023-03-09T03:51:12;94138.66;;;6.77;100.00
73564;BME280;61834;50.196;6.454;2023-03-09T03:53:40;94139.88;;;6.73;100.00
73564;BME280;61834;50.196;6.454;2023-03-09T03:56:06;94154.66;;;6.72;100.00
73564;BME280;61834;50.196;6.454;2023-03-09T03:58:34;94145.94;;;6.84;100.00
73564;BME280;61834;50.196;6.454;2023-03-09T04:00:59;94150.59;;;6.83;100.00
73564;BME280;61834;50.196;6.454;2023-03-09T04:03:25;94159.16;;;6.82;100.00
73564;BME280;61834;50.196;6.454;2023-03-09T04:05:51;94168.53;;;6.81;100.00
73564;BME280;61834;50.196;6.454;2023-03-09T04:08:18;94168.25;;;6.72;100.00
73564;BME280;61834;50.196;6.454;2023-03-09T04:10:45;94168.09;;;6.82;100.00
73564;BME280;61834;50.196;6.454;2023-03-09T04:13:11;94187.19;;;6.79;100.00
73564;BME280;61834;50.196;6.454;2023-03-09T04:15:38;94180.38;;;6.67;100.00
73564;BME280;61834;50.196;6.454;2023-03-09T04:18:04;94188.63;;;6.60;100.00
73564;BME280;61834;50.196;6.454;2023-03-09T04:20:32;94207.09;;;6.72;100.00
73564;BME280;61834;50.196;6.454;2023-03-09T04:22:58;94195.59;;;6.61;100.00
73564;BME280;61834;50.196;6.454;2023-03-09T04:25:25;94209.63;;;6.56;100.00
73564;BME280;61834;50.196;6.454;2023-03-09T04:27:50;94204.09;;;6.63;100.00
73564;BME280;61834;50.196;6.454;2023-03-09T04:30:33;94194.88;;;6.57;100.00
73564;BME280;61834;50.196;6.454;2023-03-09T04:33:01;94195.91;;;6.40;100.00
73564;BME280;61834;50.196;6.454;2023-03-09T04:35:27;94197.50;;;6.37;100.00
73564;BME280;61834;50.196;6.454;2023-03-09T04:37:55;94195.13;;;6.39;100.00
73564;BME280;61834;50.196;6.454;2023-03-09T04:40:21;94201.69;;;6.42;100.00
73564;BME280;61834;50.196;6.454;2023-03-09T04:42:49;94202.16;;;6.37;100.00
73564;BME280;61834;50.196;6.454;2023-03-09T04:45:15;94200.59;;;6.36;100.00
73564;BME280;61834;50.196;6.454;2023-03-09T04:47:42;94215.00;;;6.33;100.00
73564;BME280;61834;50.196;6.454;2023-03-09T04:50:09;94209.19;;;6.31;100.00
73564;BME280;61834;50.196;6.454;2023-03-09T04:52:38;94214.72;;;6.27;100.00
73564;BME280;61834;50.196;6.454;2023-03-09T04:55:05;94214.97;;;6.36;100.00
73564;BME280;61834;50.196;6.454;2023-03-09T04:57:31;94213.69;;;6.44;100.00
73564;BME280;61834;50.196;6.454;2023-03-09T04:59:57;94222.66;;;6.41;100.00
73564;BME280;61834;50.196;6.454;2023-03-09T05:02:25;94219.81;;;6.52;100.00
73564;BME280;61834;50.196;6.454;2023-03-09T05:04:54;94218.28;;;6.47;100.00
73564;BME280;61834;50.196;6.454;2023-03-09T05:07:20;94225.28;;;6.49;100.00
73564;BME280;61834;50.196;6.454;2023-03-09T05:09:45;94229.84;;;6.55;100.00
73564;BME280;61834;50.196;6.454;2023-03-09T05:12:11;94225.69;;;6.47;100.00
73564;BME280;61834;50.196;6.454;2023-03-09T05:14:38;94232.38;;;6.43;100.00
73564;BME280;61834;50.196;6.454;2023-03-09T05:17:04;94235.38;;;6.48;100.00
73564;BME280;61834;50.196;6.454;2023-03-09T05:19:30;94240.81;;;6.48;100.00
73564;BME280;61834;50.196;6.454;2023-03-09T05:21:58;94245.09;;;6.49;100.00
73564;BME280;61834;50.196;6.454;2023-03-09T05:24:24;94243.81;;;6.57;100.00
73564;BME280;61834;50.196;6.454;2023-03-09T05:26:50;94249.19;;;6.61;100.00
73564;BME280;61834;50.196;6.454;2023-03-09T05:29:16;94244.63;;;6.54;100.00
73564;BME280;61834;50.196;6.454;2023-03-09T05:31:42;94251.41;;;6.69;100.00
73564;BME280;61834;50.196;6.454;2023-03-09T05:34:08;94250.78;;;6.58;100.00
73564;BME280;61834;50.196;6.454;2023-03-09T05:36:33;94254.28;;;6.59;100.00
73564;BME280;61834;50.196;6.454;2023-03-09T05:39:05;94257.81;;;6.56;100.00
73564;BME280;61834;50.196;6.454;2023-03-09T05:41:31;94270.09;;;6.67;100.00
73564;BME280;61834;50.196;6.454;2023-03-09T05:44:02;94272.06;;;6.63;100.00
73564;BME280;61834;50.196;6.454;2023-03-09T05:46:29;94279.31;;;6.73;100.00
73564;BME280;61834;50.196;6.454;2023-03-09T05:48:54;94268.06;;;6.71;100.00
73564;BME280;61834;50.196;6.454;2023-03-09T05:51:20;94264.09;;;6.79;100.00
73564;BME280;61834;50.196;6.454;2023-03-09T05:53:47;94271.75;;;6.58;100.00
73564;BME280;61834;50.196;6.454;2023-03-09T05:56:13;94276.72;;;6.63;100.00
73564;BME280;61834;50.196;6.454;2023-03-09T05:58:40;94272.16;;;6.56;100.00
73564;BME280;61834;50.196;6.454;2023-03-09T06:01:17;94279.56;;;6.56;100.00
73564;BME280;61834;50.196;6.454;2023-03-09T06:03:43;94287.34;;;6.54;100.00
73564;BME280;61834;50.196;6.454;2023-03-09T06:06:09;94284.63;;;6.54;100.00
73564;BME280;61834;50.196;6.454;2023-03-09T06:08:38;94282.34;;;6.49;100.00
73564;BME280;61834;50.196;6.454;2023-03-09T06:11:08;94293.94;;;6.53;100.00
73564;BME280;61834;50.196;6.454;2023-03-09T06:13:34;94286.50;;;6.57;100.00
73564;BME280;61834;50.196;6.454;2023-03-09T06:16:02;94297.47;;;6.50;100.00
73564;BME280;61834;50.196;6.454;2023-03-09T06:18:28;94292.78;;;6.54;100.00
73564;BME280;61834;50.196;6.454;2023-03-09T06:21:00;94301.28;;;6.56;100.00
73564;BME280;61834;50.196;6.454;2023-03-09T06:23:26;94304.47;;;6.51;100.00
73564;BME280;61834;50.196;6.454;2023-03-09T06:25:52;94311.72;;;6.61;100.00
73564;BME280;61834;50.196;6.454;2023-03-09T06:28:18;94309.78;;;6.58;100.00
73564;BME280;61834;50.196;6.454;2023-03-09T06:30:44;94318.00;;;6.54;100.00
73564;BME280;61834;50.196;6.454;2023-03-09T06:33:10;94327.91;;;6.68;100.00
73564;BME280;61834;50.196;6.454;2023-03-09T06:35:38;94326.84;;;6.62;100.00
73564;BME280;61834;50.196;6.454;2023-03-09T06:38:06;94325.28;;;6.64;100.00
73564;BME280;61834;50.196;6.454;2023-03-09T06:40:32;94339.94;;;6.70;100.00
73564;BME280;61834;50.196;6.454;2023-03-09T06:42:58;94345.38;;;6.70;100.00
73564;BME280;61834;50.196;6.454;2023-03-09T06:45:24;94345.81;;;6.65;100.00
73564;BME280;61834;50.196;6.454;2023-03-09T06:47:54;94351.66;;;6.64;100.00
73564;BME280;61834;50.196;6.454;2023-03-09T06:50:22;94346.66;;;6.62;100.00
73564;BME280;61834;50.196;6.454;2023-03-09T06:52:49;94355.16;;;6.64;100.00
73564;BME280;61834;50.196;6.454;2023-03-09T06:55:18;94348.91;;;6.67;100.00
73564;BME280;61834;50.196;6.454;2023-03-09T06:57:48;94345.34;;;6.74;100.00
73564;BME280;61834;50.196;6.454;2023-03-09T07:00:14;94345.78;;;6.69;100.00
73564;BME280;61834;50.196;6.454;2023-03-09T07:02:42;94349.66;;;6.68;100.00
73564;BME280;61834;50.196;6.454;2023-03-09T07:05:08;94360.91;;;6.70;100.00
73564;BME280;61834;50.196;6.454;2023-03-09T07:07:34;94363.59;;;6.73;100.00
73564;BME280;61834;50.196;6.454;2023-03-09T07:09:59;94376.81;;;6.71;100.00
73564;BME280;61834;50.196;6.454;2023-03-09T07:12:24;94378.66;;;6.78;100.00
73564;BME280;61834;50.196;6.454;2023-03-09T07:14:50;94386.81;;;6.78;100.00
73564;BME280;61834;50.196;6.454;2023-03-09T07:17:15;94390.28;;;6.82;100.00
73564;BME280;61834;50.196;6.454;2023-03-09T07:19:41;94370.03;;;6.86;100.00
73564;BME280;61834;50.196;6.454;2023-03-09T07:22:07;94400.34;;;6.85;100.00
73564;BME280;61834;50.196;6.454;2023-03-09T07:24:36;94395.66;;;6.89;100.00
73564;BME280;61834;50.196;6.454;2023-03-09T07:27:02;94393.25;;;6.94;100.00
73564;BME280;61834;50.196;6.454;2023-03-09T07:29:27;94419.59;;;7.01;100.00
73564;BME280;61834;50.196;6.454;2023-03-09T07:31:53;94416.13;;;6.97;100.00
73564;BME280;61834;50.196;6.454;2023-03-09T07:34:19;94428.16;;;6.99;100.00
73564;BME280;61834;50.196;6.454;2023-03-09T07:36:45;94422.34;;;6.97;100.00
73564;BME280;61834;50.196;6.454;2023-03-09T07:39:11;94439.38;;;7.01;100.00
73564;BME280;61834;50.196;6.454;2023-03-09T07:41:36;94444.13;;;6.97;100.00
73564;BME280;61834;50.196;6.454;2023-03-09T07:44:02;94441.69;;;7.03;100.00
73564;BME280;61834;50.196;6.454;2023-03-09T07:46:27;94442.16;;;6.98;100.00
73564;BME280;61834;50.196;6.454;2023-03-09T07:48:52;94444.94;;;6.94;100.00
73564;BME280;61834;50.196;6.454;2023-03-09T07:51:18;94444.81;;;7.01;100.00
73564;BME280;61834;50.196;6.454;2023-03-09T07:53:44;94452.91;;;7.08;100.00
73564;BME280;61834;50.196;6.454;2023-03-09T07:56:10;94448.63;;;7.11;100.00
73564;BME280;61834;50.196;6.454;2023-03-09T07:58:38;94470.72;;;7.13;100.00
73564;BME280;61834;50.196;6.454;2023-03-09T08:01:05;94469.19;;;7.12;100.00
73564;BME280;61834;50.196;6.454;2023-03-09T08:03:31;94475.41;;;7.12;100.00
73564;BME280;61834;50.196;6.454;2023-03-09T08:06:00;94472.25;;;7.17;100.00
73564;BME280;61834;50.196;6.454;2023-03-09T08:08:26;94476.53;;;7.15;100.00
73564;BME280;61834;50.196;6.454;2023-03-09T08:10:52;94472.66;;;7.16;100.00
73564;BME280;61834;50.196;6.454;2023-03-09T08:13:19;94478.75;;;7.23;100.00
73564;BME280;61834;50.196;6.454;2023-03-09T08:15:47;94477.56;;;7.24;100.00
73564;BME280;61834;50.196;6.454;2023-03-09T08:18:12;94488.13;;;7.22;100.00
73564;BME280;61834;50.196;6.454;2023-03-09T08:20:38;94490.03;;;7.25;100.00
73564;BME280;61834;50.196;6.454;2023-03-09T08:23:04;94487.25;;;7.29;100.00
73564;BME280;61834;50.196;6.454;2023-03-09T08:25:31;94498.09;;;7.32;100.00
73564;BME280;61834;50.196;6.454;2023-03-09T08:27:57;94514.31;;;7.39;100.00
73564;BME280;61834;50.196;6.454;2023-03-09T08:30:24;94504.97;;;7.44;100.00
73564;BME280;61834;50.196;6.454;2023-03-09T08:32:51;94515.06;;;7.43;100.00
73564;BME280;61834;50.196;6.454;2023-03-09T08:35:18;94511.25;;;7.37;100.00
73564;BME280;61834;50.196;6.454;2023-03-09T08:37:44;94515.47;;;7.42;100.00
73564;BME280;61834;50.196;6.454;2023-03-09T08:40:10;94511.94;;;7.45;100.00
73564;BME280;61834;50.196;6.454;2023-03-09T08:42:36;94520.44;;;7.50;100.00
73564;BME280;61834;50.196;6.454;2023-03-09T08:45:01;94524.63;;;7.55;100.00
73564;BME280;61834;50.196;6.454;2023-03-09T08:47:29;94537.13;;;7.52;100.00
73564;BME280;61834;50.196;6.454;2023-03-09T08:49:55;94551.50;;;7.53;100.00
73564;BME280;61834;50.196;6.454;2023-03-09T08:52:20;94551.03;;;7.58;100.00
73564;BME280;61834;50.196;6.454;2023-03-09T08:54:46;94550.75;;;7.52;100.00
73564;BME280;61834;50.196;6.454;2023-03-09T08:57:11;94540.25;;;7.51;100.00
73564;BME280;61834;50.196;6.454;2023-03-09T08:59:37;94568.97;;;7.55;100.00
73564;BME280;61834;50.196;6.454;2023-03-09T09:02:02;94558.47;;;7.57;100.00
73564;BME280;61834;50.196;6.454;2023-03-09T09:04:28;94555.31;;;7.59;100.00
73564;BME280;61834;50.196;6.454;2023-03-09T09:06:54;94560.38;;;7.60;100.00
73564;BME280;61834;50.196;6.454;2023-03-09T09:09:20;94574.34;;;7.62;100.00
73564;BME280;61834;50.196;6.454;2023-03-09T09:11:45;94575.84;;;7.67;100.00
73564;BME280;61834;50.196;6.454;2023-03-09T09:14:12;94572.34;;;7.66;100.00
73564;BME280;61834;50.196;6.454;2023-03-09T09:16:37;94569.25;;;7.64;100.00
73564;BME280;61834;50.196;6.454;2023-03-09T09:19:03;94573.53;;;7.65;100.00
73564;BME280;61834;50.196;6.454;2023-03-09T09:21:28;94577.81;;;7.63;100.00
73564;BME280;61834;50.196;6.454;2023-03-09T09:23:54;94584.38;;;7.69;100.00
73564;BME280;61834;50.196;6.454;2023-03-09T09:26:20;94590.91;;;7.75;100.00
73564;BME280;61834;50.196;6.454;2023-03-09T09:28:46;94589.00;;;7.72;100.00
73564;BME280;61834;50.196;6.454;2023-03-09T09:31:16;94598.84;;;7.62;100.00
73564;BME280;61834;50.196;6.454;2023-03-09T09:33:43;94608.19;;;7.61;100.00
73564;BME280;61834;50.196;6.454;2023-03-09T09:36:13;94604.25;;;7.66;100.00
73564;BME280;61834;50.196;6.454;2023-03-09T09:38:40;94603.44;;;7.69;100.00
73564;BME280;61834;50.196;6.454;2023-03-09T09:41:13;94611.47;;;7.80;100.00
73564;BME280;61834;50.196;6.454;2023-03-09T09:43:41;94630.19;;;7.78;100.00
73564;BME280;61834;50.196;6.454;2023-03-09T09:46:10;94617.66;;;7.84;100.00
73564;BME280;61834;50.196;6.454;2023-03-09T09:48:37;94629.66;;;7.86;100.00
73564;BME280;61834;50.196;6.454;2023-03-09T09:56:15;94631.22;;;7.87;100.00
73564;BME280;61834;50.196;6.454;2023-03-09T09:58:50;94623.91;;;7.81;100.00
73564;BME280;61834;50.196;6.454;2023-03-09T10:03:58;94635.19;;;7.83;100.00
73564;BME280;61834;50.196;6.454;2023-03-09T10:06:26;94634.03;;;7.80;100.00
73564;BME280;61834;50.196;6.454;2023-03-09T10:09:14;94644.09;;;7.83;100.00
73564;BME280;61834;50.196;6.454;2023-03-09T10:11:46;94637.13;;;7.82;100.00
73564;BME280;61834;50.196;6.454;2023-03-09T10:14:32;94641.38;;;7.83;100.00
73564;BME280;61834;50.196;6.454;2023-03-09T10:17:18;94648.41;;;7.84;100.00
73564;BME280;61834;50.196;6.454;2023-03-09T10:19:47;94649.81;;;7.96;100.00
73564;BME280;61834;50.196;6.454;2023-03-09T10:22:19;94650.06;;;8.05;100.00
73564;BME280;61834;50.196;6.454;2023-03-09T10:24:51;94661.53;;;7.93;100.00
73564;BME280;61834;50.196;6.454;2023-03-09T10:27:26;94651.00;;;7.91;100.00
73564;BME280;61834;50.196;6.454;2023-03-09T10:30:06;94658.41;;;7.94;100.00
73564;BME280;61834;50.196;6.454;2023-03-09T10:33:04;94655.19;;;8.03;100.00
73564;BME280;61834;50.196;6.454;2023-03-09T10:38:21;94650.28;;;8.21;100.00
73564;BME280;61834;50.196;6.454;2023-03-09T10:40:54;94662.22;;;8.30;100.00
73564;BME280;61834;50.196;6.454;2023-03-09T10:43:29;94660.34;;;8.27;100.00
73564;BME280;61834;50.196;6.454;2023-03-09T10:45:55;94665.38;;;8.29;100.00
73564;BME280;61834;50.196;6.454;2023-03-09T10:48:26;94666.88;;;8.33;100.00
73564;BME280;61834;50.196;6.454;2023-03-09T10:50:57;94674.06;;;8.17;100.00
73564;BME280;61834;50.196;6.454;2023-03-09T10:56:02;94684.50;;;8.22;100.00
73564;BME280;61834;50.196;6.454;2023-03-09T10:58:28;94677.16;;;8.19;100.00
73564;BME280;61834;50.196;6.454;2023-03-09T11:01:18;94684.13;;;8.20;100.00
73564;BME280;61834;50.196;6.454;2023-03-09T11:03:42;94688.47;;;8.17;100.00
73564;BME280;61834;50.196;6.454;2023-03-09T11:06:34;94688.50;;;8.14;100.00
73564;BME280;61834;50.196;6.454;2023-03-09T11:09:14;94688.13;;;8.12;100.00
73564;BME280;61834;50.196;6.454;2023-03-09T11:11:43;94688.44;;;8.21;100.00
73564;BME280;61834;50.196;6.454;2023-03-09T11:14:44;94690.97;;;8.35;100.00
73564;BME280;61834;50.196;6.454;2023-03-09T11:17:37;94698.72;;;8.40;100.00
73564;BME280;61834;50.196;6.454;2023-03-09T11:25:45;94700.38;;;8.60;100.00
73564;BME280;61834;50.196;6.454;2023-03-09T11:28:31;94703.25;;;8.76;99.60
73564;BME280;61834;50.196;6.454;2023-03-09T11:30:59;94698.88;;;9.09;100.00
73564;BME280;61834;50.196;6.454;2023-03-09T11:33:25;94690.59;;;9.39;97.95
73564;BME280;61834;50.196;6.454;2023-03-09T11:35:53;94700.13;;;9.74;96.39
73564;BME280;61834;50.196;6.454;2023-03-09T11:38:20;94701.97;;;10.00;94.49
73564;BME280;61834;50.196;6.454;2023-03-09T11:40:49;94705.53;;;9.97;94.09
73564;BME280;61834;50.196;6.454;2023-03-09T11:43:28;94699.50;;;10.09;93.52
73564;BME280;61834;50.196;6.454;2023-03-09T11:45:58;94690.94;;;9.64;94.81
73564;BME280;61834;50.196;6.454;2023-03-09T11:48:44;94697.75;;;9.30;92.23
73564;BME280;61834;50.196;6.454;2023-03-09T11:51:23;94692.31;;;9.53;95.84
73564;BME280;61834;50.196;6.454;2023-03-09T11:54:19;94696.47;;;9.61;93.97
73564;BME280;61834;50.196;6.454;2023-03-09T11:56:47;94693.50;;;9.52;92.73
73564;BME280;61834;50.196;6.454;2023-03-09T11:59:17;94694.81;;;9.21;94.02
73564;BME280;61834;50.196;6.454;2023-03-09T12:04:18;94698.41;;;9.14;97.01
73564;BME280;61834;50.196;6.454;2023-03-09T12:06:57;94686.63;;;9.21;95.52
73564;BME280;61834;50.196;6.454;2023-03-09T12:14:58;94699.16;;;9.15;94.06
73564;BME280;61834;50.196;6.454;2023-03-09T12:17:35;94691.72;;;9.19;97.20
73564;BME280;61834;50.196;6.454;2023-03-09T12:20:02;94678.59;;;9.33;97.21
73564;BME280;61834;50.196;6.454;2023-03-09T12:22:36;94687.63;;;9.30;94.35
73564;BME280;61834;50.196;6.454;2023-03-09T12:25:05;94686.13;;;9.26;95.91
73564;BME280;61834;50.196;6.454;2023-03-09T12:27:33;94666.72;;;9.20;97.30
73564;BME280;61834;50.196;6.454;2023-03-09T12:34:53;94684.69;;;8.94;99.14
73564;BME280;61834;50.196;6.454;2023-03-09T12:42:44;94696.25;;;9.02;99.64
73564;BME280;61834;50.196;6.454;2023-03-09T12:47:41;94684.03;;;8.87;100.00
73564;BME280;61834;50.196;6.454;2023-03-09T12:57:43;94695.50;;;9.25;100.00
73564;BME280;61834;50.196;6.454;2023-03-09T13:00:27;94696.94;;;9.33;99.03
73564;BME280;61834;50.196;6.454;2023-03-09T13:02:58;94700.50;;;9.30;99.29
73564;BME280;61834;50.196;6.454;2023-03-09T13:05:28;94703.09;;;9.37;98.96
73564;BME280;61834;50.196;6.454;2023-03-09T13:08:21;94694.50;;;9.38;98.05
73564;BME280;61834;50.196;6.454;2023-03-09T13:10:49;94697.38;;;9.31;96.93
73564;BME280;61834;50.196;6.454;2023-03-09T13:13:40;94709.22;;;9.21;94.24
73564;BME280;61834;50.196;6.454;2023-03-09T13:24:25;94721.44;;;9.13;97.18
73564;BME280;61834;50.196;6.454;2023-03-09T13:26:54;94710.44;;;9.17;97.25
73564;BME280;61834;50.196;6.454;2023-03-09T13:29:24;94719.75;;;9.23;96.27
73564;BME280;61834;50.196;6.454;2023-03-09T13:31:50;94710.81;;;9.19;97.45
73564;BME280;61834;50.196;6.454;2023-03-09T13:34:18;94706.41;;;9.25;95.77
73564;BME280;61834;50.196;6.454;2023-03-09T13:36:47;94704.00;;;9.30;96.87
73564;BME280;61834;50.196;6.454;2023-03-09T13:39:18;94702.94;;;9.47;97.19
73564;BME280;61834;50.196;6.454;2023-03-09T13:41:46;94708.75;;;9.49;94.96
73564;BME280;61834;50.196;6.454;2023-03-09T13:44:17;94695.75;;;9.34;95.75
73564;BME280;61834;50.196;6.454;2023-03-09T13:46:47;94699.78;;;9.26;94.42
73564;BME280;61834;50.196;6.454;2023-03-09T13:51:48;94708.75;;;9.26;95.19
73564;BME280;61834;50.196;6.454;2023-03-09T13:54:36;94699.69;;;9.33;93.92
73564;BME280;61834;50.196;6.454;2023-03-09T13:57:18;94673.97;;;9.30;94.33
73564;BME280;61834;50.196;6.454;2023-03-09T14:02:10;94691.28;;;9.43;91.81
73564;BME280;61834;50.196;6.454;2023-03-09T14:07:45;94692.53;;;9.62;92.46
73564;BME280;61834;50.196;6.454;2023-03-09T14:12:58;94692.59;;;9.58;91.51
73564;BME280;61834;50.196;6.454;2023-03-09T14:15:26;94690.34;;;9.53;92.05
73564;BME280;61834;50.196;6.454;2023-03-09T14:17:53;94692.78;;;9.48;91.79
73564;BME280;61834;50.196;6.454;2023-03-09T14:20:39;94710.06;;;9.41;92.22
73564;BME280;61834;50.196;6.454;2023-03-09T14:23:39;94696.53;;;9.57;92.07
73564;BME280;61834;50.196;6.454;2023-03-09T14:26:06;94679.06;;;9.51;91.73
73564;BME280;61834;50.196;6.454;2023-03-09T14:28:38;94674.38;;;9.52;92.21